createdAt,value
2019-01-26T00:00:52.293Z,70.43
2019-01-26T00:03:44.760Z,70.43
2019-01-26T00:05:55.690Z,70.45
2019-01-26T00:08:06.508Z,70.69
2019-01-26T00:10:17.458Z,70.86
2019-01-26T00:12:28.267Z,71.13
2019-01-26T00:14:39.082Z,71.55
2019-01-26T00:16:49.891Z,72.03
2019-01-26T00:19:00.735Z,72.26
2019-01-26T00:21:11.538Z,72.32
2019-01-26T00:23:22.333Z,72.27
2019-01-26T00:25:33.164Z,72.02
2019-01-26T00:27:43.986Z,72.27
2019-01-26T00:29:54.849Z,73.26
2019-01-26T00:32:05.651Z,73.26
2019-01-26T00:34:16.497Z,73.77
2019-01-26T00:36:27.323Z,73.99
2019-01-26T00:38:38.252Z,73.87
2019-01-26T00:40:49.073Z,73.86
2019-01-26T00:42:59.874Z,73.89
2019-01-26T00:45:32.467Z,74.04
2019-01-26T00:47:43.262Z,74.50
2019-01-26T00:49:54.095Z,74.69
2019-01-26T00:52:04.876Z,74.99
2019-01-26T00:54:15.713Z,75.04
2019-01-26T00:56:26.630Z,74.90
2019-01-26T00:58:37.556Z,74.84
2019-01-26T01:00:48.375Z,74.56
2019-01-26T01:02:59.200Z,74.60
2019-01-26T01:05:10.225Z,74.51
2019-01-26T01:07:21.129Z,74.83
2019-01-26T01:09:31.938Z,74.62
2019-01-26T01:11:42.796Z,74.67
2019-01-26T01:13:53.592Z,74.94
2019-01-26T01:16:04.518Z,74.70
2019-01-26T01:18:15.333Z,74.94
2019-01-26T01:20:26.149Z,75.00
2019-01-26T01:22:36.954Z,75.05
2019-01-26T01:24:47.749Z,75.10
2019-01-26T01:26:58.562Z,75.27
2019-01-26T01:29:09.349Z,75.41
2019-01-26T01:31:20.163Z,75.95
2019-01-26T01:33:30.947Z,76.15
2019-01-26T01:35:41.764Z,77.15
2019-01-26T01:37:52.557Z,77.66
2019-01-26T01:40:45.005Z,78.48
2019-01-26T01:42:55.821Z,78.71
2019-01-26T01:45:48.264Z,78.70
2019-01-26T01:47:59.091Z,79.20
2019-01-26T01:50:51.518Z,79.63
2019-01-26T01:53:02.450Z,79.87
2019-01-26T01:55:13.340Z,79.82
2019-01-26T01:57:24.173Z,80.13
2019-01-26T01:59:34.968Z,80.51
2019-01-26T02:01:45.783Z,80.67
2019-01-26T02:03:56.600Z,80.99
2019-01-26T02:06:07.398Z,81.32
2019-01-26T02:08:18.305Z,81.33
2019-01-26T02:10:29.295Z,81.59
2019-01-26T02:12:40.130Z,81.50
2019-01-26T02:14:50.926Z,81.63
2019-01-26T02:17:01.881Z,81.68
2019-01-26T02:19:13.433Z,81.83
2019-01-26T02:21:24.229Z,81.78
2019-01-26T02:23:35.063Z,81.88
2019-01-26T02:25:45.852Z,81.79
2019-01-26T02:27:56.667Z,81.71
2019-01-26T02:30:27.337Z,81.78
2019-01-26T02:32:38.125Z,81.73
2019-01-26T02:34:48.952Z,81.67
2019-01-26T02:36:59.843Z,81.85
2019-01-26T02:39:10.672Z,81.94
2019-01-26T02:41:21.495Z,82.19
2019-01-26T02:43:32.344Z,82.36
2019-01-26T02:45:43.254Z,82.37
2019-01-26T02:47:54.052Z,82.42
2019-01-26T02:50:46.513Z,82.51
2019-01-26T02:52:57.303Z,82.61
2019-01-26T02:55:08.215Z,82.93
2019-01-26T02:57:19.017Z,83.10
2019-01-26T02:59:29.821Z,83.63
2019-01-26T03:01:40.666Z,84.02
2019-01-26T03:03:51.435Z,84.34
2019-01-26T03:06:43.915Z,84.42
2019-01-26T03:08:54.743Z,84.29
2019-01-26T03:11:05.657Z,84.20
2019-01-26T03:13:16.461Z,84.04
2019-01-26T03:15:27.368Z,83.87
2019-01-26T03:17:38.182Z,83.84
2019-01-26T03:19:49.097Z,83.75
2019-01-26T03:21:59.885Z,83.58
2019-01-26T03:24:10.680Z,83.58
2019-01-26T03:26:21.496Z,83.49
2019-01-26T03:28:32.280Z,83.59
2019-01-26T03:30:43.104Z,83.63
2019-01-26T03:32:54.038Z,83.72
2019-01-26T03:37:57.151Z,84.03
2019-01-26T03:40:49.608Z,83.84
2019-01-26T03:43:00.399Z,83.60
2019-01-26T03:45:52.874Z,83.57
2019-01-26T03:48:03.658Z,83.70
2019-01-26T03:50:56.118Z,83.62
2019-01-26T03:53:06.913Z,83.52
2019-01-26T03:55:59.370Z,83.76
2019-01-26T03:58:10.223Z,83.86
2019-01-26T04:01:02.676Z,84.26
2019-01-26T04:03:13.588Z,84.55
2019-01-26T04:05:24.610Z,84.75
2019-01-26T04:07:35.417Z,85.03
2019-01-26T04:09:46.201Z,85.25
2019-01-26T04:11:57.023Z,85.34
2019-01-26T04:14:07.857Z,85.29
2019-01-26T04:16:18.657Z,85.23
2019-01-26T04:18:29.466Z,85.27
2019-01-26T04:20:40.271Z,85.42
2019-01-26T04:22:51.060Z,85.60
2019-01-26T04:25:43.518Z,85.68
2019-01-26T04:27:54.339Z,85.84
2019-01-26T04:30:46.801Z,85.91
2019-01-26T04:32:57.627Z,85.86
2019-01-26T04:35:50.075Z,85.88
2019-01-26T04:38:00.926Z,85.82
2019-01-26T04:40:53.381Z,85.71
2019-01-26T04:43:04.295Z,85.54
2019-01-26T04:45:56.760Z,85.32
2019-01-26T04:48:07.701Z,85.31
2019-01-26T04:51:00.169Z,85.10
2019-01-26T04:53:10.986Z,85.00
2019-01-26T04:55:21.905Z,84.92
2019-01-26T04:57:32.715Z,84.54
2019-01-26T04:59:43.563Z,84.38
2019-01-26T05:01:54.314Z,84.13
2019-01-26T05:04:05.149Z,83.97
2019-01-26T05:06:15.945Z,83.95
2019-01-26T05:08:26.725Z,83.86
2019-01-26T05:10:37.568Z,83.73
2019-01-26T05:13:30.014Z,83.68
2019-01-26T05:15:40.827Z,83.68
2019-01-26T05:17:51.648Z,83.64
2019-01-26T05:20:44.107Z,83.61
2019-01-26T05:22:54.914Z,83.52
2019-01-26T05:25:05.817Z,83.36
2019-01-26T05:27:16.610Z,83.29
2019-01-26T05:29:27.410Z,83.32
2019-01-26T05:31:38.230Z,83.33
2019-01-26T05:33:49.026Z,83.29
2019-01-26T05:35:59.950Z,83.25
2019-01-26T05:38:10.852Z,83.12
2019-01-26T05:40:21.806Z,83.05
2019-01-26T05:42:32.593Z,83.05
2019-01-26T05:44:43.406Z,83.03
2019-01-26T05:46:54.212Z,82.86
2019-01-26T05:49:05.024Z,82.80
2019-01-26T05:51:15.835Z,82.87
2019-01-26T05:53:26.639Z,82.80
2019-01-26T05:55:37.552Z,82.91
2019-01-26T05:57:48.377Z,82.92
2019-01-26T05:59:59.150Z,82.98
2019-01-26T06:02:10.068Z,82.93
2019-01-26T06:04:20.875Z,83.09
2019-01-26T06:06:31.694Z,83.20
2019-01-26T06:08:42.494Z,83.29
2019-01-26T06:10:53.336Z,83.17
2019-01-26T06:13:04.155Z,83.13
2019-01-26T06:15:15.060Z,83.00
2019-01-26T06:17:25.926Z,83.13
2019-01-26T06:19:36.681Z,83.20
2019-01-26T06:21:47.510Z,83.25
2019-01-26T06:23:58.362Z,83.29
2019-01-26T06:26:09.167Z,83.24
2019-01-26T06:28:19.977Z,83.21
2019-01-26T06:30:30.800Z,83.21
2019-01-26T06:32:41.613Z,83.15
2019-01-26T06:34:52.400Z,83.18
2019-01-26T06:37:03.226Z,83.29
2019-01-26T06:39:14.013Z,83.31
2019-01-26T06:41:24.826Z,83.27
2019-01-26T06:43:35.652Z,83.21
2019-01-26T06:46:06.325Z,83.09
2019-01-26T06:48:17.220Z,83.09
2019-01-26T06:53:00.400Z,82.87
2019-01-26T06:55:11.307Z,82.88
2019-01-26T06:59:54.475Z,82.74
2019-01-26T07:02:05.281Z,82.70
2019-01-26T07:04:36.083Z,82.71
2019-01-26T07:09:19.285Z,82.76
2019-01-26T07:11:30.100Z,82.74
2019-01-26T07:13:40.914Z,82.83
2019-01-26T07:18:24.178Z,83.20
2019-01-26T07:20:35.105Z,85.45
2019-01-26T07:22:45.971Z,85.14
2019-01-26T07:24:56.798Z,84.53
2019-01-26T07:27:07.609Z,84.12
2019-01-26T07:29:18.542Z,83.97
2019-01-26T07:31:29.334Z,84.00
2019-01-26T07:33:40.176Z,84.07
2019-01-26T07:35:50.984Z,84.29
2019-01-26T07:38:01.785Z,84.37
2019-01-26T07:40:34.505Z,84.48
2019-01-26T07:42:45.289Z,84.74
2019-01-26T07:44:56.146Z,84.85
2019-01-26T07:47:06.935Z,84.76
2019-01-26T07:49:17.769Z,84.79
2019-01-26T07:51:28.715Z,84.87
2019-01-26T07:53:39.522Z,84.91
2019-01-26T07:55:50.349Z,84.98
2019-01-26T07:58:01.172Z,85.02
2019-01-26T08:00:33.778Z,85.12
2019-01-26T08:02:44.584Z,85.23
2019-01-26T08:04:55.408Z,85.22
2019-01-26T08:07:06.239Z,85.25
2019-01-26T08:09:17.031Z,85.18
2019-01-26T08:11:27.870Z,85.06
2019-01-26T08:13:38.736Z,84.91
2019-01-26T08:15:49.696Z,84.75
2019-01-26T08:18:00.586Z,84.55
2019-01-26T08:20:53.081Z,84.54
2019-01-26T08:23:03.968Z,84.50
2019-01-26T08:25:56.457Z,84.36
2019-01-26T08:28:07.242Z,84.25
2019-01-26T08:30:59.743Z,83.99
2019-01-26T08:33:10.551Z,83.93
2019-01-26T08:35:21.444Z,83.80
2019-01-26T08:37:32.265Z,83.70
2019-01-26T08:39:43.065Z,83.49
2019-01-26T08:41:53.894Z,83.42
2019-01-26T08:44:04.720Z,83.36
2019-01-26T08:46:15.546Z,83.36
2019-01-26T08:48:31.176Z,83.35
2019-01-26T08:50:39.072Z,83.30
2019-01-26T08:52:49.926Z,83.21
2019-01-26T08:55:00.781Z,82.82
2019-01-26T08:57:11.565Z,82.74
2019-01-26T08:59:22.393Z,82.75
2019-01-26T09:01:33.188Z,82.47
2019-01-26T09:08:24.814Z,82.43
2019-01-26T09:10:35.640Z,82.48
2019-01-26T09:12:46.571Z,82.54
2019-01-26T09:14:57.392Z,82.53
2019-01-26T09:17:08.224Z,82.53
2019-01-26T09:19:19.122Z,82.60
2019-01-26T09:21:30.095Z,82.54
2019-01-26T09:23:40.917Z,82.59
2019-01-26T09:25:51.728Z,82.67
2019-01-26T09:28:03.257Z,82.72
2019-01-26T09:30:55.715Z,82.66
2019-01-26T09:33:06.558Z,82.82
2019-01-26T09:35:17.362Z,82.68
2019-01-26T09:37:28.262Z,82.54
2019-01-26T09:39:39.088Z,82.45
2019-01-26T09:41:49.910Z,82.34
2019-01-26T09:44:00.840Z,82.48
2019-01-26T09:46:11.739Z,82.34
2019-01-26T09:49:04.525Z,82.06
2019-01-26T09:51:35.553Z,81.97
2019-01-26T09:53:48.805Z,82.11
2019-01-26T09:55:59.922Z,82.24
2019-01-26T09:58:11.308Z,82.26
2019-01-26T10:01:03.809Z,82.16
2019-01-26T10:03:14.714Z,81.99
2019-01-26T10:05:25.627Z,81.99
2019-01-26T10:07:36.541Z,81.76
2019-01-26T10:09:47.375Z,81.56
2019-01-26T10:11:58.225Z,81.63
2019-01-26T10:14:09.082Z,81.68
2019-01-26T10:16:20.190Z,81.59
2019-01-26T10:18:31.018Z,81.27
2019-01-26T10:21:23.485Z,81.27
2019-01-26T10:23:34.281Z,81.27
2019-01-26T10:25:48.791Z,81.23
2019-01-26T10:27:58.013Z,81.21
2019-01-26T10:30:50.468Z,81.31
2019-01-26T10:33:01.298Z,81.11
2019-01-26T10:35:12.197Z,80.86
2019-01-26T10:39:45.554Z,80.73
2019-01-26T10:46:40.917Z,79.55
2019-01-26T10:48:51.710Z,79.33
2019-01-26T10:51:02.768Z,79.15
2019-01-26T10:53:13.593Z,78.89
2019-01-26T10:55:24.396Z,78.36
2019-01-26T10:57:35.229Z,78.30
2019-01-26T10:59:46.042Z,78.36
2019-01-26T11:01:56.904Z,78.41
2019-01-26T11:04:07.759Z,78.29
2019-01-26T11:06:18.718Z,78.39
2019-01-26T11:08:29.564Z,78.40
2019-01-26T11:10:40.391Z,78.12
2019-01-26T11:12:51.311Z,77.69
2019-01-26T11:15:43.798Z,77.37
2019-01-26T11:17:54.617Z,76.91
2019-01-26T11:20:25.297Z,76.69
2019-01-26T11:22:36.149Z,76.53
2019-01-26T11:24:46.939Z,76.22
2019-01-26T11:26:57.751Z,75.66
2019-01-26T11:29:08.580Z,75.42
2019-01-26T11:31:19.499Z,75.48
2019-01-26T11:33:30.327Z,74.86
2019-01-26T11:35:41.154Z,74.67
2019-01-26T11:37:51.963Z,74.85
2019-01-26T11:40:44.456Z,74.75
2019-01-26T11:42:55.269Z,74.95
2019-01-26T11:45:47.743Z,74.92
2019-01-26T11:52:36.132Z,75.14
2019-01-26T11:59:24.670Z,75.51
2019-01-26T12:01:55.351Z,75.50
2019-01-26T12:08:47.413Z,74.85
2019-01-26T12:10:58.226Z,74.72
2019-01-26T12:13:09.078Z,74.84
2019-01-26T12:15:19.971Z,74.86
2019-01-26T12:17:30.780Z,74.72
2019-01-26T12:19:41.623Z,74.51
2019-01-26T12:21:52.447Z,74.54
2019-01-26T12:24:03.342Z,74.62
2019-01-26T12:26:14.214Z,74.77
2019-01-26T12:28:25.032Z,74.85
2019-01-26T12:30:35.950Z,74.87
2019-01-26T12:32:46.752Z,75.41
2019-01-26T12:34:57.605Z,75.43
2019-01-26T12:37:08.403Z,75.41
2019-01-26T12:39:19.205Z,75.50
2019-01-26T12:41:30.049Z,75.78
2019-01-26T12:43:40.941Z,76.09
2019-01-26T12:46:11.642Z,76.16
2019-01-26T12:48:22.445Z,76.32
2019-01-26T12:50:33.271Z,76.58
2019-01-26T12:52:44.092Z,76.63
2019-01-26T12:54:55.089Z,76.72
2019-01-26T12:57:06.024Z,76.77
2019-01-26T12:59:16.986Z,77.31
2019-01-26T13:01:27.875Z,77.47
2019-01-26T13:03:38.679Z,77.72
2019-01-26T13:08:08.226Z,77.82
2019-01-26T13:10:58.758Z,77.89
2019-01-26T13:13:09.722Z,77.87
2019-01-26T13:15:20.591Z,77.96
2019-01-26T13:17:31.447Z,78.18
2019-01-26T13:19:42.237Z,78.29
2019-01-26T13:21:53.075Z,78.35
2019-01-26T13:24:03.985Z,78.31
2019-01-26T13:26:14.774Z,78.57
2019-01-26T13:28:25.636Z,78.59
2019-01-26T13:30:36.436Z,78.45
2019-01-26T13:35:26.017Z,78.47
2019-01-26T13:37:36.874Z,78.68
2019-01-26T13:39:47.681Z,78.90
2019-01-26T13:41:58.484Z,78.88
2019-01-26T13:44:09.321Z,79.00
2019-01-26T13:46:20.236Z,78.84
2019-01-26T13:48:31.078Z,78.86
2019-01-26T13:50:41.995Z,78.96
2019-01-26T13:52:52.842Z,79.17
2019-01-26T13:55:45.283Z,82.72
2019-01-26T13:57:56.121Z,71.99
2019-01-26T14:00:48.610Z,71.76
2019-01-26T14:02:59.483Z,73.07
2019-01-26T14:05:10.356Z,74.22
2019-01-26T14:07:42.947Z,74.90
2019-01-26T14:09:53.785Z,75.48
2019-01-26T14:12:04.601Z,75.91
2019-01-26T14:14:15.430Z,76.47
2019-01-26T14:16:46.177Z,76.98
2019-01-26T14:18:57.015Z,76.98
2019-01-26T14:21:07.836Z,77.15
2019-01-26T14:23:18.636Z,77.40
2019-01-26T14:25:29.478Z,77.89
2019-01-26T14:27:40.382Z,77.92
2019-01-26T14:29:51.230Z,77.89
2019-01-26T14:32:02.138Z,77.83
2019-01-26T14:34:13.046Z,77.98
2019-01-26T14:36:23.868Z,78.02
2019-01-26T14:38:34.685Z,77.95
2019-01-26T14:40:45.565Z,77.85
2019-01-26T14:42:56.367Z,77.73
2019-01-26T14:45:48.861Z,77.88
2019-01-26T14:47:59.671Z,77.84
2019-01-26T14:50:52.142Z,77.92
2019-01-26T14:53:03.152Z,78.14
2019-01-26T14:55:55.629Z,78.19
2019-01-26T14:58:06.575Z,78.20
2019-01-26T15:00:59.326Z,78.39
2019-01-26T15:03:10.165Z,78.63
2019-01-26T15:06:02.654Z,78.41
2019-01-26T15:08:13.499Z,78.49
2019-01-26T15:10:24.425Z,78.88
2019-01-26T15:12:35.315Z,79.18
2019-01-26T15:14:46.262Z,79.56
2019-01-26T15:16:57.090Z,79.59
2019-01-26T15:19:08.019Z,79.69
2019-01-26T15:21:18.829Z,80.04
2019-01-26T15:23:29.781Z,80.10
2019-01-26T15:25:40.738Z,80.49
2019-01-26T15:27:51.608Z,80.83
2019-01-26T15:30:44.050Z,80.99
2019-01-26T15:32:55.080Z,81.39
2019-01-26T15:35:05.977Z,81.40
2019-01-26T15:37:16.845Z,82.11
2019-01-26T15:39:27.656Z,82.15
2019-01-26T15:41:38.487Z,82.35
2019-01-26T15:43:49.381Z,82.54
2019-01-26T15:46:00.284Z,82.63
2019-01-26T15:48:11.209Z,82.47
2019-01-26T15:50:22.014Z,82.76
2019-01-26T15:52:32.847Z,82.65
2019-01-26T15:54:43.657Z,82.68
2019-01-26T15:56:54.471Z,82.81
2019-01-26T15:59:05.289Z,82.99
2019-01-26T16:01:16.115Z,83.09
2019-01-26T16:03:27.172Z,83.16
2019-01-26T16:05:38.057Z,83.22
2019-01-26T16:07:49.092Z,83.24
2019-01-26T16:12:17.426Z,83.40
2019-01-26T16:14:28.267Z,83.29
2019-01-26T16:16:39.069Z,83.19
2019-01-26T16:18:49.923Z,83.22
2019-01-26T16:21:00.858Z,83.29
2019-01-26T16:23:11.775Z,83.48
2019-01-26T16:25:22.739Z,83.15
2019-01-26T16:27:33.599Z,83.21
2019-01-26T16:29:44.467Z,83.43
2019-01-26T16:31:55.278Z,83.50
2019-01-26T16:34:06.230Z,83.77
2019-01-26T16:36:17.109Z,83.76
2019-01-26T16:38:27.991Z,83.61
2019-01-26T16:40:39.078Z,83.75
2019-01-26T16:42:49.959Z,83.76
2019-01-26T16:45:00.803Z,83.76
2019-01-26T16:47:11.632Z,83.87
2019-01-26T16:49:22.435Z,83.68
2019-01-26T16:51:33.445Z,83.77
2019-01-26T16:53:44.244Z,83.65
2019-01-26T16:55:55.083Z,83.14
2019-01-26T16:58:06.100Z,83.08
2019-01-26T17:00:37.999Z,83.08
2019-01-26T17:02:48.940Z,83.01
2019-01-26T17:04:59.783Z,82.97
2019-01-26T17:07:10.646Z,82.92
2019-01-26T17:09:21.467Z,82.82
2019-01-26T17:11:32.337Z,82.70
2019-01-26T17:13:43.168Z,82.24
2019-01-26T17:15:53.977Z,81.95
2019-01-26T17:18:05.145Z,81.60
2019-01-26T17:20:36.866Z,81.62
2019-01-26T17:22:47.707Z,81.26
2019-01-26T17:24:58.593Z,81.26
2019-01-26T17:27:09.423Z,81.16
2019-01-26T17:29:20.258Z,81.19
2019-01-26T17:31:31.094Z,81.09
2019-01-26T17:33:41.909Z,80.97
2019-01-26T17:35:52.709Z,80.82
2019-01-26T17:38:45.211Z,80.69
2019-01-26T17:40:56.017Z,80.54
2019-01-26T17:43:06.851Z,80.46
2019-01-26T17:45:59.298Z,80.54
2019-01-26T17:48:10.130Z,80.61
2019-01-26T17:51:02.581Z,80.67
2019-01-26T17:57:47.820Z,80.03
2019-01-26T17:59:58.659Z,79.68
2019-01-26T18:02:09.678Z,79.70
2019-01-26T18:04:20.522Z,79.71
2019-01-26T18:06:31.429Z,79.20
2019-01-26T18:08:42.380Z,78.73
2019-01-26T18:10:53.303Z,78.81
2019-01-26T18:13:04.341Z,78.87
2019-01-26T18:15:36.940Z,78.94
2019-01-26T18:17:47.764Z,78.99
2019-01-26T18:19:58.689Z,78.86
2019-01-26T18:22:09.575Z,78.87
2019-01-26T18:26:37.474Z,78.92
2019-01-26T18:28:48.402Z,78.93
2019-01-26T18:33:16.169Z,79.05
2019-01-26T18:35:27.218Z,79.28
2019-01-26T18:37:38.140Z,79.42
2019-01-26T18:39:49.025Z,79.37
2019-01-26T18:41:59.880Z,79.25
2019-01-26T18:44:10.707Z,79.32
2019-01-26T18:46:21.570Z,79.19
2019-01-26T18:48:32.389Z,79.37
2019-01-26T18:51:05.040Z,79.29
2019-01-26T18:53:15.825Z,79.23
2019-01-26T18:58:25.262Z,79.50
2019-01-26T19:01:17.734Z,79.45
2019-01-26T19:04:10.189Z,79.40
2019-01-26T19:06:21.179Z,79.32
2019-01-26T19:08:32.019Z,79.30
2019-01-26T19:10:42.957Z,79.16
2019-01-26T19:15:35.723Z,78.98
2019-01-26T19:17:46.672Z,79.10
2019-01-26T19:19:57.482Z,79.19
2019-01-26T19:22:08.521Z,79.48
2019-01-26T19:24:19.336Z,79.58
2019-01-26T19:26:30.187Z,79.60
2019-01-26T19:28:41.303Z,79.54
2019-01-26T19:30:52.084Z,79.48
2019-01-26T19:33:03.101Z,79.35
2019-01-26T19:35:55.552Z,79.41
2019-01-26T19:38:06.405Z,79.46
2019-01-26T19:40:58.851Z,79.35
2019-01-26T19:43:09.779Z,79.32
2019-01-26T19:46:02.242Z,79.44
2019-01-26T19:48:13.145Z,78.83
2019-01-26T19:51:09.923Z,79.14
2019-01-26T19:53:18.376Z,79.31
2019-01-26T19:55:29.191Z,79.65
2019-01-26T19:57:40.111Z,79.35
2019-01-26T19:59:50.954Z,79.31
2019-01-26T20:02:01.888Z,79.27
2019-01-26T20:04:12.714Z,79.24
2019-01-26T20:06:23.645Z,79.18
2019-01-26T20:08:34.484Z,79.21
2019-01-26T20:10:52.759Z,79.33
2019-01-26T20:13:03.847Z,79.20
2019-01-26T20:15:34.515Z,79.28
2019-01-26T20:18:26.998Z,79.37
2019-01-26T20:23:36.043Z,79.18
2019-01-26T20:25:46.862Z,79.04
2019-01-26T20:27:57.819Z,79.19
2019-01-26T20:30:50.316Z,79.33
2019-01-26T20:33:01.239Z,79.07
2019-01-26T20:35:12.234Z,79.21
2019-01-26T20:37:23.042Z,79.08
2019-01-26T20:39:33.854Z,79.07
2019-01-26T20:41:44.702Z,79.28
2019-01-26T20:43:55.526Z,79.21
2019-01-26T20:46:06.385Z,78.49
2019-01-26T20:48:17.400Z,78.50
2019-01-26T20:50:28.284Z,78.53
2019-01-26T20:52:39.207Z,80.27
2019-01-26T20:54:50.072Z,81.19
2019-01-26T20:57:00.897Z,77.05
2019-01-26T20:59:11.824Z,77.00
2019-01-26T21:01:22.658Z,77.04
2019-01-26T21:03:33.563Z,77.19
2019-01-26T21:08:00.887Z,77.61
2019-01-26T21:10:53.372Z,77.85
2019-01-26T21:13:17.919Z,77.93
2019-01-26T21:15:28.945Z,77.66
2019-01-26T21:17:39.801Z,77.60
2019-01-26T21:19:50.724Z,77.68
2019-01-26T21:22:01.567Z,77.83
2019-01-26T21:24:12.402Z,77.71
2019-01-26T21:26:23.331Z,77.70
2019-01-26T21:28:34.257Z,77.79
2019-01-26T21:30:45.081Z,77.53
2019-01-26T21:32:56.022Z,77.70
2019-01-26T21:35:48.498Z,77.94
2019-01-26T21:37:59.364Z,77.94
2019-01-26T21:40:51.800Z,78.02
2019-01-26T21:43:02.729Z,77.86
2019-01-26T21:45:55.193Z,77.75
2019-01-26T21:48:06.111Z,77.86
2019-01-26T21:50:58.552Z,77.75
2019-01-26T21:53:09.499Z,77.61
2019-01-26T21:55:20.422Z,77.64
2019-01-26T21:57:31.220Z,77.74
2019-01-26T21:59:42.046Z,77.79
2019-01-26T22:01:52.964Z,77.78
2019-01-26T22:04:03.805Z,77.88
2019-01-26T22:06:14.703Z,77.58
2019-01-26T22:08:25.551Z,77.46
2019-01-26T22:10:36.357Z,77.45
2019-01-26T22:12:47.382Z,77.47
2019-01-26T22:14:58.224Z,77.46
2019-01-26T22:17:09.033Z,77.44
2019-01-26T22:19:21.911Z,79.73
2019-01-26T22:21:32.768Z,76.89
2019-01-26T22:24:03.466Z,76.82
2019-01-26T22:26:14.273Z,77.18
2019-01-26T22:28:25.074Z,76.97
2019-01-26T22:35:38.842Z,76.91
2019-01-26T22:37:49.841Z,76.79
2019-01-26T22:40:00.663Z,76.98
2019-01-26T22:42:11.452Z,76.94
2019-01-26T22:44:22.267Z,76.91
2019-01-26T22:46:33.180Z,76.68
2019-01-26T22:48:44.002Z,76.62
2019-01-26T22:50:54.832Z,76.43
2019-01-26T22:53:05.669Z,76.36
2019-01-26T22:55:58.218Z,76.65
2019-01-26T22:58:09.137Z,76.61
2019-01-26T23:01:00.748Z,76.41
2019-01-26T23:03:11.564Z,76.36
2019-01-26T23:06:04.022Z,76.11
2019-01-26T23:08:56.478Z,76.16
2019-01-26T23:11:47.033Z,76.22
2019-01-26T23:14:39.541Z,76.21
2019-01-26T23:17:32.001Z,76.41
2019-01-26T23:20:24.483Z,76.10
2019-01-26T23:23:15.019Z,76.19
2019-01-26T23:26:05.596Z,76.22
2019-01-26T23:28:58.053Z,76.07
2019-01-26T23:31:28.750Z,76.15
2019-01-26T23:33:39.764Z,76.29
2019-01-26T23:35:50.585Z,76.30
2019-01-26T23:38:01.424Z,76.26
2019-01-26T23:40:53.866Z,76.06
2019-01-26T23:43:04.684Z,75.79
2019-01-26T23:45:15.595Z,75.44
2019-01-26T23:47:26.434Z,75.36
2019-01-26T23:49:37.237Z,75.28
2019-01-26T23:51:48.102Z,75.37
2019-01-26T23:53:58.922Z,75.47
2019-01-26T23:56:09.753Z,75.47
2019-01-26T23:58:20.569Z,75.47
